Startpagina
METAR-TAF:

METAR-TAF

Vliegvelden :

Luchthaven Riga

Riga, Letland

breedte: 56-55N, lengte: 023-58E, hoogte: 10 m

Actueel weer

Dit bericht is 20 minuten geleden gemaakt, om 20:50 UTC
Weinig wind
Temperatuur 10°C
Vochtigheid 87%
Druk 1020 hPa
Zicht 10 km of meer
geen wolken onder 1500 m en geen cumulonimbus

METAR: EVRA 222050Z 00000KT CAVOK 10/08 Q1020 NOSIG

Tijdstip: 00:10 (21:10 UTC)

Verwachting

Dit bericht is 1 uur en het 3 minuten geleden gemaakt, om 20:07 UTC
Verwachting geldig van 22 om 21 UTC tot 23 om 21 UTC
Wind 2 kt uit variabele richting
Zicht 10 km of meer
Verspreide wolken op 4000 ft
Tijdelijke
van 22 om 21 UTC tot 22 om 24 UTC
Zicht: 3000 m
Ondiepe mist, nevel
Tijdelijke
van 23 om 00 UTC tot 23 om 03 UTC
Zicht: 0600 m
Gebroken wolken op 200 ft
mist
Wijzigt naar
van 23 om 06 UTC tot 23 om 08 UTC
Wind 10 kt uit het noorden

TAF: EVRA 222007Z 2221/2321 VRB02KT 9999 SCT040 TEMPO 2221/2224 3000 MIFG BR TEMPO 2300/2303 0600 FG BKN002 BECMG 2306/2308 35010KT

Waarnemingen en weersverwachtingen van meer dan 4000 vliegvelden (METAR en TAF).

De beschikbare stations zijn de gele en rode punten op de kaart.

Ga met uw muis naar het station om de naam te zien.

Klik dan om waarnemingen en weersverwachtingen te zien.

kaart wijzigen: klik op de groene knoppen met een zwart kruis om in te zoomen, op de groene knop met een streepje om uit te zoomen of op de groene pijlen voor aangrenzende kaarten.


METAR-TAF: